Time;durP1;ratioP1;P1;durP2;ratioP2;P2;SDS_P1;SDS_P2;PMS_P1;PMS_P2;Temp;Humidity;BMP_temperature;BMP_pressure;BME280_temperature;BME280_humidity;BME280_pressure;Samples;Min_cycle;Max_cycle;Signal;HPM_P1;HPM_P2
2021/12/04 00:01:52;;;;;;;0.80;0.80;;;16.60;64.80;;;;;;5058939;28;44117;-68
2021/12/04 00:04:22;;;;;;;0.87;0.87;;;16.50;64.70;;;;;;5061339;28;43669;-67
2021/12/04 00:06:52;;;;;;;1.00;1.00;;;16.50;64.80;;;;;;5053296;28;43805;-67
2021/12/04 00:09:21;;;;;;;1.00;1.00;;;16.50;65.50;;;;;;5050522;28;44086;-67
2021/12/04 00:11:55;;;;;;;0.73;0.73;;;16.50;64.80;;;;;;5047314;28;45124;-68
2021/12/04 00:14:23;;;;;;;0.80;0.80;;;16.60;64.90;;;;;;5063054;28;44960;-68
2021/12/04 00:16:51;;;;;;;0.70;0.70;;;16.70;64.60;;;;;;5059754;28;44212;-68
2021/12/04 00:19:19;;;;;;;0.90;0.90;;;16.80;64.30;;;;;;5059511;28;43969;-67
2021/12/04 00:21:47;;;;;;;0.80;0.80;;;16.90;64.00;;;;;;5064079;28;44057;-67
2021/12/04 00:24:16;;;;;;;1.00;1.00;;;16.90;63.90;;;;;;5059457;28;45109;-68
2021/12/04 00:26:45;;;;;;;0.80;0.80;;;16.90;63.90;;;;;;5059724;28;43826;-68
2021/12/04 00:29:13;;;;;;;0.80;0.80;;;16.80;64.00;;;;;;5071801;27;44072;-68
2021/12/04 00:31:46;;;;;;;0.70;0.70;;;16.80;64.30;;;;;;5066403;27;43454;-67
2021/12/04 00:34:14;;;;;;;0.80;0.80;;;16.70;64.40;;;;;;5066595;28;44794;-68
2021/12/04 00:36:58;;;;;;;0.67;0.67;;;16.70;64.50;;;;;;5059723;28;44091;-67
2021/12/04 00:50:29;;;;;;;0.63;0.63;;;16.50;65.00;;;;;;5061031;28;44033;-67
2021/12/04 00:52:57;;;;;;;0.60;0.60;;;16.60;65.20;;;;;;5060175;28;44072;-68
2021/12/04 00:55:26;;;;;;;0.80;0.80;;;16.60;64.80;;;;;;5054030;28;43915;-69
2021/12/04 00:57:54;;;;;;;0.70;0.70;;;16.70;64.80;;;;;;5065902;28;44083;-67
2021/12/04 01:00:22;;;;;;;0.67;0.67;;;16.70;64.80;;;;;;5059581;28;44437;-68
2021/12/04 01:02:50;;;;;;;0.93;0.93;;;16.60;64.80;;;;;;5066329;28;43995;-67
2021/12/04 01:05:18;;;;;;;0.90;0.90;;;16.60;64.80;;;;;;5059404;28;44106;-67
2021/12/04 01:07:46;;;;;;;0.80;0.80;;;16.60;64.90;;;;;;5058686;28;44039;-67
2021/12/04 01:10:14;;;;;;;0.80;0.80;;;16.60;65.10;;;;;;5058206;28;44047;-67
2021/12/04 01:12:43;;;;;;;0.70;0.70;;;16.50;65.10;;;;;;5055629;28;43996;-68
2021/12/04 01:15:11;;;;;;;0.60;0.60;;;16.50;65.20;;;;;;5058856;28;44132;-67
2021/12/04 01:17:39;;;;;;;0.80;0.80;;;16.50;65.30;;;;;;5054912;28;44072;-68
2021/12/04 01:20:11;;;;;;;0.50;0.50;;;16.50;65.40;;;;;;5059016;28;44815;-67
2021/12/04 01:22:39;;;;;;;0.60;0.60;;;16.50;65.40;;;;;;5061161;28;44081;-67
2021/12/04 01:25:09;;;;;;;0.70;0.70;;;16.40;65.40;;;;;;5062514;28;44871;-68
2021/12/04 01:27:37;;;;;;;0.63;0.63;;;16.40;65.40;;;;;;5058189;28;44090;-67
2021/12/04 01:30:08;;;;;;;0.63;0.63;;;16.40;65.60;;;;;;5062582;28;44080;-68
2021/12/04 01:32:35;;;;;;;0.77;0.77;;;16.50;65.60;;;;;;5061993;28;44071;-69
2021/12/04 01:35:04;;;;;;;0.50;0.50;;;16.60;65.30;;;;;;5063696;28;43999;-67
2021/12/04 01:37:32;;;;;;;0.77;0.77;;;16.70;65.00;;;;;;5059985;28;44115;-67
2021/12/04 01:39:59;;;;;;;0.80;0.80;;;16.70;64.70;;;;;;5068924;28;44055;-67
2021/12/04 01:42:29;;;;;;;0.57;0.57;;;16.80;64.60;;;;;;5061536;28;44036;-68
2021/12/04 01:44:57;;;;;;;0.60;0.60;;;16.70;64.60;;;;;;5062290;28;43990;-68
2021/12/04 01:47:26;;;;;;;0.70;0.70;;;16.70;64.80;;;;;;5062266;28;43475;-68
2021/12/04 01:49:55;;;;;;;0.50;0.50;;;16.60;64.80;;;;;;5069124;28;43720;-68
2021/12/04 01:52:23;;;;;;;0.60;0.60;;;16.60;65.00;;;;;;5061873;28;44183;-68
2021/12/04 01:54:56;;;;;;;0.60;0.60;;;16.60;65.10;;;;;;5090081;27;44344;-68
2021/12/04 01:57:24;;;;;;;0.50;0.50;;;16.60;65.30;;;;;;5064317;28;44061;-67
2021/12/04 01:59:51;;;;;;;0.70;0.70;;;16.50;65.30;;;;;;5062515;28;44115;-67
2021/12/04 02:02:19;;;;;;;0.70;0.70;;;16.50;65.40;;;;;;5062554;28;44013;-67
2021/12/04 02:04:49;;;;;;;0.60;0.60;;;16.50;65.50;;;;;;5061211;28;45078;-68
2021/12/04 02:07:19;;;;;;;0.60;0.60;;;16.40;65.40;;;;;;5065406;28;44091;-68
2021/12/04 02:09:47;;;;;;;0.50;0.50;;;16.50;65.70;;;;;;5069519;28;43999;-67
2021/12/04 02:12:15;;;;;;;0.60;0.60;;;16.50;65.60;;;;;;5061524;28;43992;-68
2021/12/04 02:14:43;;;;;;;0.60;0.60;;;16.60;65.40;;;;;;5061449;28;44029;-67
2021/12/04 02:17:13;;;;;;;0.50;0.50;;;16.60;65.00;;;;;;5068038;28;44103;-68
2021/12/04 02:19:40;;;;;;;0.50;0.50;;;16.70;64.90;;;;;;5073464;27;44068;-68
2021/12/04 02:22:10;;;;;;;0.50;0.50;;;16.70;64.80;;;;;;5061023;28;43895;-67
2021/12/04 02:24:38;;;;;;;0.60;0.60;;;16.70;64.90;;;;;;5060533;28;44091;-68
2021/12/04 02:27:06;;;;;;;0.60;0.60;;;16.60;64.80;;;;;;5061496;28;43934;-68
2021/12/04 02:29:34;;;;;;;0.57;0.57;;;16.60;64.90;;;;;;5060249;28;44113;-68
2021/12/04 02:32:02;;;;;;;0.50;0.50;;;16.60;65.10;;;;;;5068295;28;43634;-68
2021/12/04 02:34:31;;;;;;;0.50;0.50;;;16.60;65.30;;;;;;5066432;28;44175;-68
2021/12/04 02:36:59;;;;;;;0.57;0.57;;;16.50;65.20;;;;;;5060932;28;43961;-68
2021/12/04 02:39:31;;;;;;;0.50;0.50;;;16.50;65.40;;;;;;5068479;28;44082;-68
2021/12/04 02:41:59;;;;;;;0.40;0.40;;;16.50;65.40;;;;;;5062432;28;43989;-68
2021/12/04 02:44:33;;;;;;;0.60;0.60;;;16.50;65.50;;;;;;5068171;28;43909;-69
2021/12/04 02:47:00;;;;;;;0.60;0.60;;;16.50;65.60;;;;;;5055416;28;44146;-67
2021/12/04 02:49:28;;;;;;;0.40;0.40;;;16.40;65.70;;;;;;5060937;28;44144;-67
2021/12/04 02:52:01;;;;;;;0.57;0.57;;;16.50;65.90;;;;;;5063210;28;43967;-68
2021/12/04 02:54:31;;;;;;;0.43;0.43;;;16.50;65.40;;;;;;5060185;28;44025;-68
2021/12/04 02:57:00;;;;;;;0.50;0.50;;;16.60;65.30;;;;;;5061343;28;43471;-67
2021/12/04 02:59:28;;;;;;;0.40;0.40;;;16.60;65.20;;;;;;5061266;28;44019;-68
2021/12/04 03:01:57;;;;;;;0.47;0.47;;;16.60;66.10;;;;;;5054504;28;44128;-68
2021/12/04 03:04:27;;;;;;;0.50;0.50;;;16.50;65.30;;;;;;5064036;28;43998;-66
2021/12/04 03:06:55;;;;;;;0.40;0.40;;;16.50;65.50;;;;;;5059937;28;44300;-67
2021/12/04 03:09:23;;;;;;;0.40;0.40;;;16.40;65.50;;;;;;5061057;28;44019;-67
2021/12/04 03:11:52;;;;;;;0.63;0.63;;;16.40;65.60;;;;;;5062970;28;44103;-67
2021/12/04 03:14:20;;;;;;;0.60;0.60;;;16.40;65.80;;;;;;5059841;28;43924;-68
2021/12/04 03:16:48;;;;;;;0.50;0.50;;;16.40;65.80;;;;;;5058320;28;45288;-67
2021/12/04 03:19:18;;;;;;;0.50;0.50;;;16.40;65.90;;;;;;5060315;28;43949;-67
2021/12/04 03:21:46;;;;;;;0.40;0.40;;;16.40;66.00;;;;;;5059636;28;43468;-67
2021/12/04 03:24:16;;;;;;;0.60;0.60;;;16.30;66.00;;;;;;5060574;28;43907;-67
2021/12/04 03:26:45;;;;;;;0.40;0.40;;;16.30;66.10;;;;;;5058569;28;44116;-68
2021/12/04 03:29:17;;;;;;;0.40;0.40;;;16.30;66.10;;;;;;5066289;28;44023;-67
2021/12/04 03:32:06;;;;;;;0.60;0.60;;;16.30;66.30;;;;;;5063582;28;44000;-67
2021/12/04 03:40:11;;;;;;;0.50;0.50;;;16.60;65.60;;;;;;5060579;28;44060;-67
2021/12/04 03:42:40;;;;;;;0.57;0.57;;;16.60;65.10;;;;;;5066737;28;44064;-68
2021/12/04 03:45:10;;;;;;;0.50;0.50;;;16.70;64.90;;;;;;5060773;28;44011;-67
2021/12/04 03:47:41;;;;;;;0.40;0.40;;;16.70;65.00;;;;;;5062984;28;44171;-67
2021/12/04 03:50:09;;;;;;;0.40;0.40;;;16.60;65.10;;;;;;5060240;28;44021;-68
2021/12/04 03:52:37;;;;;;;0.33;0.33;;;16.50;65.30;;;;;;5059054;28;44025;-68
2021/12/04 03:55:06;;;;;;;0.40;0.40;;;16.50;65.50;;;;;;5070905;28;43919;-68
2021/12/04 03:57:34;;;;;;;0.33;0.33;;;16.50;65.60;;;;;;5059345;28;44009;-68
2021/12/04 04:00:02;;;;;;;0.40;0.40;;;16.40;65.70;;;;;;5058483;28;44169;-67
2021/12/04 04:02:40;;;;;;;0.43;0.43;;;16.40;65.80;;;;;;5067321;27;44027;-67
2021/12/04 04:05:08;;;;;;;0.50;0.50;;;16.40;65.80;;;;;;5060076;28;44260;-66
2021/12/04 04:07:36;;;;;;;0.40;0.40;;;16.40;65.90;;;;;;5053246;28;44148;-66
2021/12/04 04:10:05;;;;;;;0.40;0.40;;;16.30;65.90;;;;;;5056597;28;43965;-68
2021/12/04 04:12:33;;;;;;;0.30;0.30;;;16.40;66.10;;;;;;5058847;28;43958;-67
2021/12/04 04:15:01;;;;;;;0.30;0.30;;;16.40;65.80;;;;;;5060211;28;45123;-68
2021/12/04 04:17:31;;;;;;;0.30;0.30;;;16.50;65.60;;;;;;5059119;28;44100;-67
2021/12/04 04:20:03;;;;;;;0.40;0.40;;;16.50;65.50;;;;;;5060021;28;43509;-68
2021/12/04 04:22:31;;;;;;;0.60;0.60;;;16.50;65.50;;;;;;5066459;28;43941;-68
2021/12/04 04:24:59;;;;;;;0.30;0.30;;;16.50;65.60;;;;;;5064585;28;44643;-67
2021/12/04 04:27:27;;;;;;;0.30;0.30;;;16.50;65.60;;;;;;5062342;28;44028;-68
2021/12/04 04:29:55;;;;;;;0.40;0.40;;;16.40;65.60;;;;;;5057655;27;44146;-68
2021/12/04 04:32:24;;;;;;;0.37;0.37;;;16.40;65.70;;;;;;5056967;28;44008;-67
2021/12/04 04:34:54;;;;;;;0.37;0.37;;;16.40;65.80;;;;;;5060024;28;44621;-67
2021/12/04 04:37:30;;;;;;;0.50;0.50;;;16.40;65.80;;;;;;5061896;28;43984;-68
2021/12/04 04:40:25;;;;;;;0.43;0.43;;;16.40;65.90;;;;;;5059713;28;43756;-68
2021/12/04 04:59:47;;;;;;;0.50;0.50;;;16.60;65.60;;;;;;5059126;28;43416;-68
2021/12/04 05:11:04;;;;;;;0.40;0.40;;;16.60;65.10;;;;;;5063184;28;43999;-68
2021/12/04 05:13:32;;;;;;;0.30;0.30;;;16.60;65.40;;;;;;5065177;28;44019;-69
2021/12/04 05:16:10;;;;;;;0.27;0.27;;;16.50;65.50;;;;;;5061525;28;44048;-67
2021/12/04 05:18:41;;;;;;;0.37;0.37;;;16.50;65.70;;;;;;5056916;28;45081;-69
2021/12/04 05:21:11;;;;;;;0.40;0.40;;;16.40;65.80;;;;;;5061800;28;44061;-68
2021/12/04 05:23:41;;;;;;;0.30;0.30;;;16.40;65.90;;;;;;5063008;28;44211;-68
2021/12/04 05:26:12;;;;;;;0.40;0.40;;;16.40;66.00;;;;;;5062859;28;44477;-67
2021/12/04 05:28:40;;;;;;;0.20;0.20;;;16.40;66.10;;;;;;5063331;28;43927;-67
2021/12/04 05:31:08;;;;;;;0.30;0.30;;;16.40;66.20;;;;;;5061803;28;44067;-68
2021/12/04 05:33:36;;;;;;;0.40;0.40;;;16.40;66.30;;;;;;5059295;28;43502;-67
2021/12/04 05:36:04;;;;;;;0.30;0.30;;;16.40;66.00;;;;;;5061597;28;44047;-68
2021/12/04 05:38:32;;;;;;;0.30;0.30;;;16.50;65.80;;;;;;5068015;28;44013;-68
2021/12/04 05:41:00;;;;;;;0.30;0.30;;;16.50;66.40;;;;;;5064979;28;44063;-68
2021/12/04 05:43:30;;;;;;;0.30;0.30;;;16.50;65.80;;;;;;5064418;28;43980;-68
2021/12/04 05:46:03;;;;;;;0.20;0.20;;;16.40;65.70;;;;;;5058611;28;44338;-68
2021/12/04 05:48:36;;;;;;;0.30;0.30;;;16.40;65.80;;;;;;5058003;28;45035;-68
2021/12/04 05:54:01;;;;;;;0.30;0.30;;;16.40;66.00;;;;;;5065209;28;44044;-67
2021/12/04 05:56:30;;;;;;;0.30;0.30;;;16.40;66.10;;;;;;5059653;28;44059;-68
2021/12/04 05:58:59;;;;;;;0.23;0.23;;;16.30;66.10;;;;;;5060925;28;44806;-67
2021/12/04 06:01:27;;;;;;;0.27;0.27;;;16.30;66.10;;;;;;5064038;28;44107;-67
2021/12/04 06:03:55;;;;;;;0.30;0.30;;;16.30;66.10;;;;;;5062235;28;43517;-67
2021/12/04 06:06:23;;;;;;;0.20;0.20;;;16.30;66.10;;;;;;5062747;28;44288;-68
2021/12/04 06:08:51;;;;;;;0.40;0.40;;;16.30;66.20;;;;;;5064204;28;44068;-69
2021/12/04 06:11:19;;;;;;;0.37;0.37;;;16.30;66.30;;;;;;5061892;28;44112;-68
2021/12/04 06:13:47;;;;;;;0.30;0.30;;;16.30;66.30;;;;;;5068281;28;43758;-67
2021/12/04 06:16:17;;;;;;;0.27;0.27;;;16.40;66.10;;;;;;5054798;28;43974;-67
2021/12/04 06:18:46;;;;;;;0.30;0.30;;;16.50;65.90;;;;;;5057433;28;44111;-68
2021/12/04 11:23:34;;;;;;;2.77;2.40;;;16.30;66.40;;;;;;5062042;28;44056;-67
2021/12/04 11:40:09;;;;;;;3.43;2.73;;;16.20;66.40;;;;;;5060934;28;44122;-68
2021/12/04 11:42:39;;;;;;;2.63;2.43;;;16.30;65.60;;;;;;5059646;28;44390;-68
2021/12/04 11:45:14;;;;;;;4.30;2.97;;;16.40;65.10;;;;;;5061329;28;43972;-68
2021/12/04 11:47:44;;;;;;;3.10;2.57;;;16.60;64.90;;;;;;5061608;28;43845;-68
2021/12/04 11:50:17;;;;;;;3.30;2.67;;;16.60;64.60;;;;;;5059868;28;44043;-68
2021/12/04 11:52:46;;;;;;;3.13;2.37;;;16.70;64.50;;;;;;5056057;28;43455;-68
2021/12/04 11:55:14;;;;;;;2.77;2.13;;;16.60;64.70;;;;;;5057261;28;44112;-68
2021/12/04 11:57:42;;;;;;;2.57;2.37;;;16.60;64.80;;;;;;5056933;28;44181;-67
2021/12/04 12:00:14;;;;;;;2.50;2.30;;;16.50;65.10;;;;;;5057469;28;44504;-68
2021/12/04 12:02:43;;;;;;;2.83;2.63;;;16.50;65.30;;;;;;5065272;28;44198;-68
2021/12/04 12:05:15;;;;;;;2.97;2.47;;;16.40;65.50;;;;;;5060963;27;44011;-69
2021/12/04 12:07:50;;;;;;;2.87;2.30;;;16.40;65.70;;;;;;5060068;28;43949;-68
2021/12/04 12:10:19;;;;;;;2.97;2.40;;;16.30;65.80;;;;;;5062113;28;44035;-68
2021/12/04 12:12:47;;;;;;;2.80;2.60;;;16.30;66.00;;;;;;5060310;27;44040;-68
2021/12/04 12:15:23;;;;;;;2.93;2.30;;;16.30;66.20;;;;;;5060181;28;44133;-67
2021/12/04 12:17:54;;;;;;;3.97;3.20;;;16.30;66.40;;;;;;5058027;28;44005;-68
2021/12/04 12:20:34;;;;;;;3.00;2.73;;;16.30;66.30;;;;;;5060322;28;45008;-67
2021/12/04 12:23:05;;;;;;;5.33;3.00;;;16.30;66.20;;;;;;5062364;28;43503;-68
2021/12/04 12:25:49;;;;;;;2.70;2.47;;;16.40;66.00;;;;;;5061681;28;43417;-68
2021/12/04 12:34:03;;;;;;;3.33;2.50;;;16.40;66.30;;;;;;5053934;28;44059;-67
2021/12/04 12:36:31;;;;;;;3.23;2.57;;;16.40;66.50;;;;;;5040789;28;43540;-68
2021/12/04 12:39:15;;;;;;;3.33;2.70;;;16.30;66.50;;;;;;5056618;28;44055;-68
2021/12/04 12:41:44;;;;;;;4.83;2.90;;;16.30;66.60;;;;;;5065714;28;44908;-68
2021/12/04 12:44:14;;;;;;;3.03;2.83;;;16.30;66.70;;;;;;5054263;28;44115;-68
2021/12/04 12:46:43;;;;;;;3.57;2.33;;;16.30;66.70;;;;;;5060913;28;43473;-67
2021/12/04 12:49:21;;;;;;;3.07;2.70;;;16.30;66.90;;;;;;5061764;28;44118;-68
2021/12/04 12:51:58;;;;;;;4.40;3.00;;;16.30;66.80;;;;;;5063183;28;44033;-66
2021/12/04 12:54:30;;;;;;;3.03;2.70;;;16.30;66.90;;;;;;5062319;28;43966;-67
2021/12/04 12:57:04;;;;;;;3.33;2.53;;;16.30;66.90;;;;;;5057971;28;44086;-67
2021/12/04 12:59:57;;;;;;;3.30;3.00;;;16.20;66.80;;;;;;5060725;28;44040;-67
2021/12/04 13:13:32;;;;;;;3.63;2.87;;;16.70;65.30;;;;;;5084983;27;45354;-68
2021/12/04 13:16:05;;;;;;;3.97;3.07;;;16.70;65.30;;;;;;5057948;28;44034;-67
2021/12/04 13:18:33;;;;;;;2.97;2.70;;;16.60;65.50;;;;;;5060013;28;43929;-67
2021/12/04 13:21:05;;;;;;;4.07;2.80;;;16.60;65.80;;;;;;5056326;28;44061;-67
2021/12/04 13:23:33;;;;;;;2.93;2.73;;;16.50;66.20;;;;;;5060394;28;44948;-66
2021/12/04 13:26:05;;;;;;;4.73;2.80;;;16.50;66.30;;;;;;5058105;28;43536;-68
2021/12/04 13:28:34;;;;;;;7.03;2.90;;;16.40;66.40;;;;;;5060854;28;43636;-67
2021/12/04 13:31:02;;;;;;;2.97;2.63;;;16.40;66.50;;;;;;5061321;28;44300;-67
2021/12/04 13:33:31;;;;;;;2.93;2.63;;;16.30;66.60;;;;;;5062437;28;44138;-67
2021/12/04 13:35:59;;;;;;;2.97;2.70;;;16.40;67.50;;;;;;5061072;28;45080;-67
2021/12/04 13:38:28;;;;;;;3.90;2.70;;;16.30;66.70;;;;;;5062356;28;44314;-67
2021/12/04 13:40:58;;;;;;;3.03;2.83;;;16.30;66.70;;;;;;5058746;28;44372;-67
2021/12/04 13:43:26;;;;;;;3.77;2.60;;;16.30;66.70;;;;;;5062423;28;44996;-67
2021/12/04 13:45:58;;;;;;;5.47;3.13;;;16.50;66.40;;;;;;5070053;28;43997;-68
2021/12/04 13:48:26;;;;;;;2.80;2.60;;;16.50;66.10;;;;;;5055147;28;44117;-67
2021/12/04 13:50:56;;;;;;;3.20;2.43;;;16.50;66.30;;;;;;5072261;27;44098;-67
2021/12/04 13:53:26;;;;;;;4.97;2.80;;;16.50;66.50;;;;;;5067628;28;43959;-67
2021/12/04 13:55:57;;;;;;;3.43;3.07;;;16.40;66.40;;;;;;5065884;28;44092;-68
2021/12/04 13:58:44;;;;;;;5.17;2.73;;;16.40;66.60;;;;;;5061422;28;44256;-68
2021/12/04 14:01:12;;;;;;;2.50;2.33;;;16.40;66.80;;;;;;5068206;28;44050;-67
2021/12/04 14:03:40;;;;;;;4.63;3.00;;;16.40;66.80;;;;;;5063768;28;44091;-68
2021/12/04 14:06:12;;;;;;;3.10;2.60;;;16.30;66.80;;;;;;5063980;28;44052;-67
2021/12/04 14:08:40;;;;;;;5.13;2.67;;;16.30;66.90;;;;;;5061839;28;43452;-67
2021/12/04 14:11:10;;;;;;;3.00;2.70;;;16.30;67.00;;;;;;5061665;27;43536;-68
2021/12/04 14:13:38;;;;;;;2.37;2.27;;;16.30;67.00;;;;;;5047183;28;44240;-69
2021/12/04 14:16:06;;;;;;;2.77;2.57;;;16.30;67.00;;;;;;5067635;27;45678;-68
2021/12/04 14:18:36;;;;;;;3.33;2.60;;;16.30;67.10;;;;;;5064823;28;44067;-67
2021/12/04 14:21:04;;;;;;;2.63;2.40;;;16.30;67.10;;;;;;5063317;28;44078;-68
2021/12/04 14:23:33;;;;;;;2.67;2.47;;;16.30;67.00;;;;;;5063405;28;44531;-68
2021/12/04 14:26:03;;;;;;;2.40;2.30;;;16.40;66.60;;;;;;5066756;28;44511;-67
2021/12/04 14:28:35;;;;;;;2.53;2.33;;;16.60;66.20;;;;;;5065221;28;43982;-67
2021/12/04 14:31:03;;;;;;;2.83;2.63;;;16.70;65.70;;;;;;5061539;28;43483;-67
2021/12/04 14:33:31;;;;;;;2.30;2.20;;;16.80;65.30;;;;;;5065056;28;45687;-67
2021/12/04 14:35:59;;;;;;;2.87;2.50;;;16.80;65.10;;;;;;5065044;27;43509;-68
2021/12/04 14:38:29;;;;;;;2.63;2.50;;;16.80;65.40;;;;;;5058038;28;44117;-67
2021/12/04 14:40:59;;;;;;;2.27;2.17;;;16.70;65.60;;;;;;5062975;28;43980;-67
2021/12/04 14:43:29;;;;;;;2.60;2.40;;;16.60;65.80;;;;;;5056572;28;44834;-68
2021/12/04 14:45:59;;;;;;;3.37;2.70;;;16.60;66.10;;;;;;5062193;28;43961;-68
2021/12/04 14:48:33;;;;;;;2.53;2.40;;;16.50;66.20;;;;;;5062467;28;44122;-67
2021/12/04 14:51:05;;;;;;;2.33;2.13;;;16.50;66.60;;;;;;5062525;28;44199;-67
2021/12/04 14:53:39;;;;;;;2.60;2.40;;;16.40;66.60;;;;;;5061246;28;44071;-69
2021/12/04 14:56:09;;;;;;;2.10;2.00;;;16.40;66.60;;;;;;5060975;28;44075;-68
2021/12/04 14:58:37;;;;;;;3.13;2.33;;;16.40;66.80;;;;;;5060685;28;44062;-67
2021/12/04 15:01:07;;;;;;;4.63;2.60;;;16.40;66.80;;;;;;5058321;28;44245;-68
2021/12/04 15:03:38;;;;;;;6.83;2.20;;;16.40;67.00;;;;;;5062292;28;45020;-68
2021/12/04 15:06:08;;;;;;;5.43;2.20;;;16.40;66.70;;;;;;5058041;28;43712;-67
2021/12/04 15:08:38;;;;;;;4.63;2.23;;;16.50;66.50;;;;;;5057867;28;44091;-67
2021/12/04 15:11:07;;;;;;;2.50;2.17;;;16.50;67.10;;;;;;5061416;28;44096;-66
2021/12/04 15:13:36;;;;;;;2.30;2.10;;;16.50;66.60;;;;;;5061861;28;43677;-68
2021/12/04 15:16:07;;;;;;;2.30;2.10;;;16.50;66.70;;;;;;5060683;28;44109;-67
2021/12/04 15:18:38;;;;;;;2.77;2.17;;;16.50;66.80;;;;;;5063060;28;44068;-68
2021/12/04 15:21:27;;;;;;;2.63;2.50;;;16.50;67.00;;;;;;5063037;28;43472;-68
2021/12/04 15:23:57;;;;;;;3.67;2.40;;;16.40;67.00;;;;;;5061893;28;44000;-67
2021/12/04 15:26:26;;;;;;;2.60;2.40;;;16.40;67.20;;;;;;5062250;28;44057;-67
2021/12/04 15:28:55;;;;;;;2.60;2.50;;;16.30;67.20;;;;;;5062143;28;44078;-67
2021/12/04 15:31:25;;;;;;;2.37;2.27;;;16.30;68.00;;;;;;5061813;28;43853;-68
2021/12/04 15:33:55;;;;;;;2.40;2.20;;;16.30;67.40;;;;;;5060461;28;45071;-67
2021/12/04 15:36:30;;;;;;;2.60;2.40;;;16.30;67.40;;;;;;5057993;28;43544;-68
2021/12/04 15:38:59;;;;;;;2.50;2.30;;;16.30;67.50;;;;;;5056473;28;44119;-68
2021/12/04 15:41:39;;;;;;;2.93;2.73;;;16.30;67.50;;;;;;5058967;28;43982;-68
2021/12/04 15:44:23;;;;;;;3.73;2.50;;;16.40;67.50;;;;;;5073734;27;46261;-67
2021/12/04 15:47:09;;;;;;;2.63;2.53;;;16.40;67.10;;;;;;5074362;27;44146;-67
2021/12/04 15:50:08;;;;;;;2.40;2.20;;;16.60;66.70;;;;;;5062185;28;44040;-66
2021/12/04 15:52:50;;;;;;;2.43;2.27;;;16.70;66.20;;;;;;5059845;28;43988;-68
2021/12/04 15:55:21;;;;;;;2.27;2.17;;;16.80;65.80;;;;;;5057782;28;43968;-68
2021/12/04 15:57:53;;;;;;;2.63;2.40;;;16.80;65.80;;;;;;5061543;27;43958;-66
2021/12/04 16:00:21;;;;;;;2.80;2.60;;;16.80;66.10;;;;;;5054028;28;44115;-68
2021/12/04 16:02:55;;;;;;;2.33;2.23;;;16.70;66.40;;;;;;5058108;27;43953;-67
2021/12/04 16:05:24;;;;;;;2.10;2.00;;;16.60;66.50;;;;;;5054406;28;44795;-66
2021/12/04 16:08:01;;;;;;;2.20;2.10;;;16.60;66.70;;;;;;5055105;28;44089;-68
2021/12/04 16:10:29;;;;;;;2.10;2.10;;;16.60;67.00;;;;;;5061594;28;44090;-67
2021/12/04 16:12:58;;;;;;;6.10;2.17;;;16.50;67.00;;;;;;5061859;28;44171;-68
2021/12/04 16:15:26;;;;;;;2.37;2.27;;;16.50;67.10;;;;;;5067074;28;46978;-67
2021/12/04 16:17:55;;;;;;;2.40;2.30;;;16.50;67.30;;;;;;5058340;28;43830;-67
2021/12/04 16:20:24;;;;;;;2.20;2.00;;;16.50;67.20;;;;;;5062076;28;43895;-67
2021/12/04 16:22:52;;;;;;;2.10;2.00;;;16.50;67.20;;;;;;5061449;28;44236;-68
2021/12/04 16:25:21;;;;;;;2.23;2.13;;;16.50;67.20;;;;;;5060428;28;44041;-67
2021/12/04 16:27:58;;;;;;;2.90;2.07;;;16.60;66.90;;;;;;5060999;28;43984;-68
2021/12/04 16:30:34;;;;;;;2.00;1.90;;;16.60;66.50;;;;;;5060501;28;43925;-68
2021/12/04 16:33:29;;;;;;;2.10;2.00;;;16.60;66.50;;;;;;5058828;28;43826;-67
2021/12/04 16:36:04;;;;;;;2.00;1.90;;;16.60;66.70;;;;;;5052990;28;43943;-68
2021/12/04 16:38:32;;;;;;;2.00;2.00;;;16.60;66.70;;;;;;5061268;28;44092;-68
2021/12/04 16:41:05;;;;;;;2.60;2.13;;;16.60;66.90;;;;;;5053425;28;44108;-67
2021/12/04 16:43:34;;;;;;;2.17;2.07;;;16.50;67.00;;;;;;5056733;28;44142;-67
2021/12/04 16:46:04;;;;;;;2.10;2.00;;;16.50;67.20;;;;;;5061618;28;44425;-67
2021/12/04 16:48:37;;;;;;;2.27;1.90;;;16.50;67.90;;;;;;5061181;28;44059;-68
2021/12/04 16:57:24;;;;;;;2.03;1.93;;;16.50;67.40;;;;;;5045091;28;44080;-68
2021/12/04 16:59:54;;;;;;;2.20;2.10;;;16.50;67.40;;;;;;5064583;28;44016;-68
2021/12/04 17:02:23;;;;;;;1.87;1.77;;;16.40;67.40;;;;;;5062941;28;44108;-68
2021/12/04 17:04:52;;;;;;;2.17;2.07;;;16.50;67.50;;;;;;5063372;28;43593;-68
2021/12/04 17:07:22;;;;;;;2.07;2.07;;;16.60;67.20;;;;;;5063122;28;43998;-66
2021/12/04 17:09:50;;;;;;;1.73;1.73;;;16.70;66.70;;;;;;5061943;28;44155;-68
2021/12/04 17:12:18;;;;;;;1.97;1.87;;;16.90;66.40;;;;;;5059987;28;44393;-68
2021/12/04 17:14:48;;;;;;;2.07;1.97;;;16.90;66.00;;;;;;5071225;28;43522;-67
2021/12/04 17:17:23;;;;;;;1.93;1.90;;;16.90;65.80;;;;;;5059979;28;43955;-67
2021/12/04 17:19:52;;;;;;;2.80;2.00;;;16.90;66.00;;;;;;5063343;28;43987;-67
2021/12/04 17:22:20;;;;;;;1.90;1.80;;;16.90;66.30;;;;;;5062258;28;44152;-68
2021/12/04 17:24:48;;;;;;;2.03;1.93;;;16.80;66.40;;;;;;5064633;28;44074;-67
2021/12/04 17:27:16;;;;;;;1.83;1.83;;;16.80;66.60;;;;;;5065093;28;43608;-68
2021/12/04 17:29:46;;;;;;;1.77;1.70;;;16.80;66.80;;;;;;5064510;28;44071;-67
2021/12/04 17:32:16;;;;;;;1.73;1.73;;;16.70;66.70;;;;;;5070124;28;44057;-67
2021/12/04 17:34:44;;;;;;;1.77;1.73;;;16.70;66.90;;;;;;5064266;28;44034;-67
2021/12/04 17:37:14;;;;;;;1.87;1.80;;;16.70;67.00;;;;;;5061906;28;44248;-67
2021/12/04 17:39:42;;;;;;;1.90;1.80;;;16.60;67.00;;;;;;5063942;28;44035;-69
2021/12/04 17:42:10;;;;;;;1.80;1.70;;;16.60;67.00;;;;;;5063751;28;43992;-68
2021/12/04 17:44:38;;;;;;;1.77;1.77;;;16.60;67.00;;;;;;5065742;28;44087;-67
2021/12/04 17:47:06;;;;;;;1.80;1.80;;;16.70;66.90;;;;;;5063348;28;44918;-68
2021/12/04 17:49:35;;;;;;;1.80;1.70;;;16.80;66.60;;;;;;5060551;28;43960;-68
2021/12/04 17:52:04;;;;;;;1.70;1.70;;;16.80;66.40;;;;;;5058444;28;44054;-68
2021/12/04 17:54:34;;;;;;;2.00;2.00;;;16.80;66.60;;;;;;5064382;28;44012;-68
2021/12/04 17:57:02;;;;;;;1.87;1.77;;;16.80;66.60;;;;;;5061517;28;44077;-66
2021/12/04 17:59:30;;;;;;;1.80;1.80;;;16.80;66.70;;;;;;5059527;28;44431;-67
2021/12/04 18:01:59;;;;;;;1.83;1.80;;;16.70;66.80;;;;;;5064553;28;43458;-67
2021/12/04 18:04:28;;;;;;;2.10;2.03;;;16.70;66.90;;;;;;5060851;28;43462;-68
2021/12/04 18:06:58;;;;;;;2.00;1.93;;;16.70;66.90;;;;;;5058054;28;44063;-68
2021/12/04 18:09:30;;;;;;;2.07;1.97;;;16.70;67.10;;;;;;5065241;28;44204;-67
2021/12/04 18:12:01;;;;;;;1.70;1.70;;;16.60;67.00;;;;;;5059569;28;43946;-67
2021/12/04 18:14:29;;;;;;;1.80;1.80;;;16.60;67.10;;;;;;5062154;28;44060;-68
2021/12/04 18:16:57;;;;;;;1.80;1.80;;;16.60;67.20;;;;;;5065840;28;44057;-67
2021/12/04 18:19:28;;;;;;;2.00;1.90;;;16.60;67.30;;;;;;5065040;27;44056;-67
2021/12/04 18:21:56;;;;;;;1.87;1.87;;;16.60;67.20;;;;;;5062296;28;43915;-67
2021/12/04 18:24:24;;;;;;;1.70;1.70;;;16.60;67.30;;;;;;5063971;28;44029;-68
2021/12/04 18:26:52;;;;;;;1.87;1.87;;;16.70;67.20;;;;;;5063837;28;44076;-67
2021/12/04 18:29:22;;;;;;;1.93;1.90;;;16.80;66.90;;;;;;5063214;28;44133;-67
2021/12/04 18:31:50;;;;;;;1.60;1.60;;;16.90;66.50;;;;;;5065702;28;43432;-68
2021/12/04 18:34:18;;;;;;;1.83;1.83;;;17.00;66.10;;;;;;5063769;28;43573;-68
2021/12/04 18:36:47;;;;;;;1.40;1.40;;;17.00;65.80;;;;;;5062877;28;44098;-68
2021/12/04 18:39:16;;;;;;;1.67;1.67;;;17.00;65.80;;;;;;5054787;28;44068;-67
2021/12/04 18:41:44;;;;;;;1.83;1.73;;;17.00;66.00;;;;;;5059520;28;44030;-67
2021/12/04 18:44:14;;;;;;;1.80;1.80;;;16.90;66.30;;;;;;5060522;28;43451;-68
2021/12/04 18:46:44;;;;;;;2.33;1.90;;;16.90;66.40;;;;;;5063097;28;44354;-67
2021/12/04 18:49:13;;;;;;;1.90;1.80;;;16.90;66.70;;;;;;5063272;28;44088;-68
2021/12/04 18:51:41;;;;;;;1.67;1.67;;;16.80;66.90;;;;;;5062073;28;44067;-67
2021/12/04 18:54:10;;;;;;;1.70;1.70;;;16.80;67.00;;;;;;5061120;28;44086;-67
2021/12/04 18:56:38;;;;;;;2.47;2.37;;;16.80;67.10;;;;;;5066157;28;43798;-68
2021/12/04 18:59:08;;;;;;;2.00;1.90;;;16.70;67.10;;;;;;5063620;28;43972;-67
2021/12/04 19:01:36;;;;;;;1.80;1.80;;;16.70;67.20;;;;;;5063660;28;43481;-67
2021/12/04 19:04:07;;;;;;;1.80;1.80;;;16.70;67.20;;;;;;5063057;28;44037;-67
2021/12/04 19:06:36;;;;;;;1.60;1.60;;;16.80;67.10;;;;;;5063001;28;43981;-67
2021/12/04 19:09:04;;;;;;;2.23;2.07;;;16.90;66.80;;;;;;5063466;28;44062;-68
2021/12/04 19:11:33;;;;;;;1.80;1.63;;;16.90;66.60;;;;;;5063192;28;43995;-68
2021/12/04 19:14:01;;;;;;;1.73;1.73;;;16.90;66.70;;;;;;5062962;28;44469;-68
2021/12/04 19:16:29;;;;;;;1.87;1.87;;;16.90;66.80;;;;;;5065813;28;43746;-68
2021/12/04 19:18:58;;;;;;;1.93;1.93;;;16.80;66.90;;;;;;5062644;28;44026;-67
2021/12/04 19:21:28;;;;;;;6.20;2.30;;;16.80;66.90;;;;;;5064663;28;44068;-67
2021/12/04 19:23:56;;;;;;;2.90;2.00;;;16.80;67.00;;;;;;5055933;28;44453;-68
2021/12/04 19:26:24;;;;;;;1.70;1.70;;;16.70;67.30;;;;;;5057327;27;44442;-66
2021/12/04 19:28:53;;;;;;;2.37;2.20;;;16.70;67.10;;;;;;5059099;28;44438;-68